createdAt,value
2019-05-19T00:01:50.424Z,67.65
2019-05-19T00:04:21.084Z,70.20
2019-05-19T00:06:51.820Z,67.47
2019-05-19T00:09:22.375Z,69.35
2019-05-19T00:11:53.030Z,66.33
2019-05-19T00:14:23.749Z,73.20
2019-05-19T00:16:54.323Z,68.95
2019-05-19T00:19:26.962Z,69.03
2019-05-19T00:21:57.107Z,64.67
2019-05-19T00:24:27.578Z,62.75
2019-05-19T00:26:58.093Z,64.70
2019-05-19T00:29:28.521Z,64.15
2019-05-19T00:34:36.450Z,64.27
2019-05-19T00:37:07.075Z,66.45
2019-05-19T00:39:37.576Z,61.13
2019-05-19T00:42:08.065Z,60.33
2019-05-19T00:44:38.709Z,58.98
2019-05-19T00:47:09.368Z,60.38
2019-05-19T00:49:41.740Z,59.23
2019-05-19T00:52:12.422Z,56.85
2019-05-19T00:54:43.169Z,58.20
2019-05-19T00:57:14.213Z,53.87
2019-05-19T00:59:45.585Z,59.63
2019-05-19T01:02:16.376Z,59.63
2019-05-19T01:04:46.926Z,57.95
2019-05-19T01:07:17.439Z,55.40
2019-05-19T01:09:48.000Z,58.13
2019-05-19T01:12:18.537Z,57.20
2019-05-19T01:14:49.180Z,57.33
2019-05-19T01:17:19.735Z,54.98
2019-05-19T01:19:55.905Z,54.63
2019-05-19T01:22:23.146Z,54.93
2019-05-19T01:24:53.766Z,57.38
2019-05-19T01:27:24.273Z,54.00
2019-05-19T01:32:50.464Z,57.95
2019-05-19T01:35:21.072Z,58.85
2019-05-19T01:37:54.964Z,62.53
2019-05-19T01:40:25.445Z,62.70
2019-05-19T01:42:56.120Z,60.10
2019-05-19T01:45:26.803Z,61.18
2019-05-19T01:47:59.360Z,60.52
2019-05-19T01:50:30.014Z,61.40
2019-05-19T01:53:00.540Z,61.28
2019-05-19T01:55:31.152Z,62.40
2019-05-19T01:58:01.646Z,62.40
2019-05-19T02:00:32.269Z,65.72
2019-05-19T02:03:02.847Z,69.37
2019-05-19T02:05:33.691Z,68.10
2019-05-19T02:08:04.256Z,69.30
2019-05-19T02:10:35.736Z,62.23
2019-05-19T02:13:12.823Z,66.33
2019-05-19T02:15:43.429Z,64.60
2019-05-19T02:18:14.844Z,68.25
2019-05-19T02:20:45.644Z,67.20
2019-05-19T02:23:16.139Z,66.47
2019-05-19T02:25:46.733Z,65.60
2019-05-19T02:28:17.265Z,67.60
2019-05-19T02:30:47.877Z,67.32
2019-05-19T02:33:20.031Z,65.22
2019-05-19T02:35:50.425Z,68.05
2019-05-19T02:38:21.062Z,69.15
2019-05-19T02:40:55.217Z,69.47
2019-05-19T02:43:27.058Z,74.80
2019-05-19T02:46:01.727Z,80.57
2019-05-19T02:48:33.324Z,78.25
2019-05-19T02:51:04.882Z,80.42
2019-05-19T02:53:35.460Z,70.50
2019-05-19T02:56:06.321Z,71.72
2019-05-19T02:58:37.783Z,63.58
2019-05-19T03:01:08.571Z,61.73
2019-05-19T03:03:39.157Z,59.20
2019-05-19T03:06:10.140Z,56.98
2019-05-19T03:08:41.659Z,54.48
2019-05-19T03:11:12.215Z,55.03
2019-05-19T03:13:42.692Z,50.30
2019-05-19T03:16:13.195Z,52.70
2019-05-19T03:18:43.749Z,51.95
2019-05-19T03:21:14.185Z,51.75
2019-05-19T03:23:45.818Z,48.63
2019-05-19T03:26:16.322Z,54.75
2019-05-19T03:28:46.853Z,55.40
2019-05-19T03:31:39.565Z,56.18
2019-05-19T03:34:10.006Z,58.73
2019-05-19T03:36:40.384Z,53.83
2019-05-19T03:39:10.918Z,56.75
2019-05-19T03:41:41.455Z,55.58
2019-05-19T03:44:12.029Z,54.65
2019-05-19T03:46:43.809Z,51.25
2019-05-19T03:49:14.478Z,56.55
2019-05-19T03:51:47.979Z,54.27
2019-05-19T03:54:19.244Z,56.23
2019-05-19T03:56:52.701Z,57.70
2019-05-19T03:59:27.095Z,58.58
2019-05-19T04:01:59.672Z,64.62
2019-05-19T04:04:35.134Z,62.43
2019-05-19T04:07:08.133Z,58.87
2019-05-19T04:09:40.406Z,61.55
2019-05-19T04:12:22.844Z,67.70
2019-05-19T04:14:54.977Z,60.85
2019-05-19T04:17:28.880Z,53.70
2019-05-19T04:20:01.280Z,58.90
2019-05-19T04:22:39.630Z,56.13
2019-05-19T04:25:10.909Z,56.37
2019-05-19T04:27:43.784Z,53.83
2019-05-19T04:30:18.052Z,55.88
2019-05-19T04:32:49.801Z,54.88
2019-05-19T04:37:59.767Z,54.38
2019-05-19T04:40:30.559Z,53.68
2019-05-19T04:43:04.162Z,56.10
2019-05-19T04:45:37.736Z,57.43
2019-05-19T04:48:09.991Z,59.90
2019-05-19T04:50:45.910Z,58.48
2019-05-19T04:53:16.628Z,60.73
2019-05-19T04:55:48.173Z,60.50
2019-05-19T04:58:23.058Z,68.65
2019-05-19T05:00:54.746Z,68.70
2019-05-19T05:03:26.063Z,65.05
2019-05-19T05:05:59.698Z,62.15
2019-05-19T05:08:31.837Z,65.57
2019-05-19T05:11:04.172Z,63.65
2019-05-19T05:13:36.077Z,60.92
2019-05-19T05:16:07.195Z,61.00
2019-05-19T05:18:37.923Z,58.75
2019-05-19T05:21:13.149Z,62.98
2019-05-19T05:23:44.835Z,58.90
2019-05-19T05:26:16.766Z,61.05
2019-05-19T05:28:53.197Z,62.03
2019-05-19T05:31:36.589Z,64.65
2019-05-19T05:34:08.744Z,65.00
2019-05-19T05:36:48.943Z,58.08
2019-05-19T05:39:20.967Z,58.25
2019-05-19T05:41:53.361Z,62.08
2019-05-19T05:44:24.878Z,56.73
2019-05-19T05:47:03.756Z,55.40
2019-05-19T05:49:36.928Z,54.65
2019-05-19T05:52:08.604Z,56.77
2019-05-19T05:54:39.180Z,51.60
2019-05-19T05:57:11.248Z,52.48
2019-05-19T05:59:44.854Z,53.68
2019-05-19T06:02:16.877Z,49.08
2019-05-19T06:04:49.896Z,47.05
2019-05-19T06:07:21.475Z,45.48
2019-05-19T06:09:54.310Z,47.73
2019-05-19T06:15:10.776Z,49.55
2019-05-19T06:17:42.509Z,42.85
2019-05-19T06:20:18.255Z,48.83
2019-05-19T06:22:56.270Z,46.23
2019-05-19T06:25:26.451Z,46.68
2019-05-19T06:27:58.425Z,46.53
2019-05-19T06:30:33.241Z,46.50
2019-05-19T06:33:04.964Z,45.33
2019-05-19T06:38:15.803Z,42.20
2019-05-19T06:40:48.254Z,43.65
2019-05-19T06:43:31.619Z,41.63
2019-05-19T06:46:04.525Z,45.67
2019-05-19T06:48:38.619Z,42.13
2019-05-19T06:51:09.924Z,40.55
2019-05-19T06:53:50.199Z,41.02
2019-05-19T06:56:22.136Z,46.30
2019-05-19T06:58:54.216Z,41.00
2019-05-19T07:01:26.166Z,44.15
2019-05-19T07:03:57.736Z,38.67
2019-05-19T07:06:29.622Z,44.27
2019-05-19T07:11:38.780Z,48.17
2019-05-19T07:14:12.860Z,45.55
2019-05-19T07:16:45.714Z,46.15
2019-05-19T07:19:20.442Z,42.13
2019-05-19T07:21:51.458Z,43.20
2019-05-19T07:24:24.729Z,44.83
2019-05-19T07:26:56.195Z,45.40
2019-05-19T07:29:29.420Z,45.73
2019-05-19T07:32:03.151Z,43.02
2019-05-19T07:34:40.007Z,44.53
2019-05-19T07:37:11.584Z,45.88
2019-05-19T07:39:43.181Z,41.40
2019-05-19T07:42:17.480Z,39.50
2019-05-19T07:44:48.905Z,43.17
2019-05-19T07:47:22.919Z,40.15
2019-05-19T07:49:54.732Z,42.75
2019-05-19T07:52:27.353Z,43.28
2019-05-19T07:54:58.873Z,41.18
2019-05-19T07:57:29.665Z,40.65
2019-05-19T08:00:05.221Z,37.70
2019-05-19T08:02:35.971Z,39.73
2019-05-19T08:05:08.599Z,38.38
2019-05-19T08:07:40.572Z,37.73
2019-05-19T08:10:14.479Z,39.50
2019-05-19T08:12:45.540Z,36.50
2019-05-19T08:15:17.497Z,38.42
2019-05-19T08:17:50.639Z,37.93
2019-05-19T08:20:25.643Z,38.80
2019-05-19T08:22:57.623Z,40.30
2019-05-19T08:25:29.571Z,39.83
2019-05-19T08:28:08.408Z,39.58
2019-05-19T08:30:34.512Z,39.03
2019-05-19T08:33:06.376Z,41.92
2019-05-19T08:35:37.511Z,41.50
2019-05-19T08:38:11.266Z,38.65
2019-05-19T08:40:42.786Z,40.15
2019-05-19T08:43:18.301Z,38.60
2019-05-19T08:45:50.587Z,39.05
2019-05-19T08:48:24.243Z,39.60
2019-05-19T08:50:55.899Z,40.60
2019-05-19T08:53:27.008Z,37.58
2019-05-19T08:56:00.604Z,37.10
2019-05-19T08:58:31.939Z,37.48
2019-05-19T09:01:04.535Z,34.45
2019-05-19T09:03:37.365Z,34.10
2019-05-19T09:06:08.812Z,34.15
2019-05-19T09:08:42.511Z,31.52
2019-05-19T09:11:15.454Z,36.88
2019-05-19T09:13:48.555Z,35.17
2019-05-19T09:16:19.610Z,35.15
2019-05-19T09:18:53.240Z,33.98
2019-05-19T09:21:24.872Z,34.63
2019-05-19T09:23:57.852Z,36.13
2019-05-19T09:26:30.269Z,32.48
2019-05-19T09:29:05.211Z,31.30
2019-05-19T09:31:41.488Z,34.18
2019-05-19T09:34:13.146Z,34.13
2019-05-19T09:36:46.704Z,32.63
2019-05-19T09:39:18.255Z,29.90
2019-05-19T09:41:50.379Z,32.30
2019-05-19T09:44:31.030Z,29.77
2019-05-19T09:47:03.868Z,27.48
2019-05-19T09:49:36.029Z,31.37
2019-05-19T09:52:07.548Z,29.02
2019-05-19T09:54:45.370Z,30.40
2019-05-19T09:57:15.752Z,31.52
2019-05-19T09:59:46.852Z,33.05
2019-05-19T10:02:17.487Z,32.48
2019-05-19T10:04:49.880Z,36.33
2019-05-19T10:07:22.060Z,30.77
2019-05-19T10:10:03.910Z,31.57
2019-05-19T10:12:37.365Z,32.05
2019-05-19T10:15:11.830Z,33.67
2019-05-19T10:17:43.600Z,32.17
2019-05-19T10:20:16.940Z,32.60
2019-05-19T10:22:49.239Z,32.67
2019-05-19T10:25:23.516Z,35.92
2019-05-19T10:27:56.152Z,36.25
2019-05-19T10:30:28.131Z,30.60
2019-05-19T10:33:00.462Z,31.75
2019-05-19T10:35:32.753Z,31.85
2019-05-19T10:38:05.647Z,31.35
2019-05-19T10:40:37.952Z,31.30
2019-05-19T10:45:49.839Z,29.48
2019-05-19T10:48:20.480Z,30.75
2019-05-19T10:50:52.586Z,27.90
2019-05-19T10:53:24.939Z,26.65
2019-05-19T10:55:55.907Z,28.70
2019-05-19T10:58:28.712Z,28.20
2019-05-19T11:01:00.328Z,31.42
2019-05-19T11:03:32.198Z,29.60
2019-05-19T11:06:06.394Z,29.82
2019-05-19T11:08:38.512Z,28.23
2019-05-19T11:11:11.101Z,29.30
2019-05-19T11:13:44.097Z,29.37
2019-05-19T11:16:16.140Z,29.82
2019-05-19T11:18:47.919Z,30.60
2019-05-19T11:21:19.887Z,31.95
2019-05-19T11:23:52.267Z,28.20
2019-05-19T11:26:23.943Z,28.27
2019-05-19T11:28:55.996Z,28.92
2019-05-19T11:31:26.809Z,29.92
2019-05-19T11:34:00.017Z,28.35
2019-05-19T11:36:31.267Z,28.92
2019-05-19T11:39:05.076Z,30.02
2019-05-19T11:41:39.055Z,29.00
2019-05-19T11:44:13.365Z,28.38
2019-05-19T11:46:44.791Z,29.20
2019-05-19T11:49:17.403Z,28.45
2019-05-19T11:51:48.878Z,28.05
2019-05-19T11:54:20.708Z,28.23
2019-05-19T11:56:52.453Z,29.32
2019-05-19T11:59:26.936Z,28.23
2019-05-19T12:02:01.647Z,30.50
2019-05-19T12:04:33.954Z,32.85
2019-05-19T12:07:06.646Z,33.48
2019-05-19T12:09:39.790Z,31.55
2019-05-19T12:12:11.347Z,31.17
2019-05-19T12:14:43.116Z,30.57
2019-05-19T12:17:15.691Z,31.20
2019-05-19T12:19:47.024Z,31.12
2019-05-19T12:22:18.764Z,32.35
2019-05-19T12:24:50.600Z,28.57
2019-05-19T12:27:22.280Z,28.42
2019-05-19T12:29:54.134Z,32.95
2019-05-19T12:32:25.257Z,30.45
2019-05-19T12:34:56.120Z,29.75
2019-05-19T12:37:27.804Z,30.60
2019-05-19T12:40:02.376Z,32.13
2019-05-19T12:42:35.108Z,28.65
2019-05-19T12:45:09.754Z,29.32
2019-05-19T12:47:48.999Z,29.67
2019-05-19T12:50:21.357Z,30.02
2019-05-19T12:52:52.988Z,30.52
2019-05-19T12:55:24.953Z,30.57
2019-05-19T12:57:56.725Z,30.80
2019-05-19T13:00:30.737Z,30.82
2019-05-19T13:03:03.443Z,29.98
2019-05-19T13:05:37.179Z,29.48
2019-05-19T13:08:11.387Z,30.65
2019-05-19T13:10:43.324Z,29.80
2019-05-19T13:13:14.703Z,31.02
2019-05-19T13:15:46.906Z,34.05
2019-05-19T13:18:18.897Z,34.05
2019-05-19T13:20:50.562Z,32.05
2019-05-19T13:23:22.340Z,34.33
2019-05-19T13:25:53.941Z,31.73
2019-05-19T13:28:24.956Z,33.20
2019-05-19T13:30:56.315Z,31.20
2019-05-19T13:33:29.212Z,31.35
2019-05-19T13:36:01.940Z,32.20
2019-05-19T13:38:34.331Z,30.57
2019-05-19T13:41:05.672Z,32.08
2019-05-19T13:43:43.865Z,31.23
2019-05-19T13:46:16.892Z,35.48
2019-05-19T13:48:48.522Z,33.88
2019-05-19T13:51:27.223Z,34.43
2019-05-19T13:53:58.830Z,33.05
2019-05-19T13:56:30.507Z,32.17
2019-05-19T13:59:02.988Z,32.25
2019-05-19T14:01:35.150Z,32.35
2019-05-19T14:04:07.857Z,30.85
2019-05-19T14:06:39.571Z,32.53
2019-05-19T14:09:15.208Z,34.88
2019-05-19T14:11:44.507Z,31.57
2019-05-19T14:14:14.980Z,30.95
2019-05-19T14:16:45.382Z,33.65
2019-05-19T14:19:15.819Z,33.70
2019-05-19T14:21:46.264Z,32.63
2019-05-19T14:24:16.767Z,33.38
2019-05-19T14:26:47.265Z,34.63
2019-05-19T14:29:17.720Z,33.13
2019-05-19T14:31:48.348Z,32.48
2019-05-19T14:34:18.835Z,33.98
2019-05-19T14:36:49.348Z,33.25
2019-05-19T14:39:19.784Z,32.38
2019-05-19T14:44:30.394Z,33.35
2019-05-19T14:47:01.435Z,34.60
2019-05-19T14:49:45.117Z,35.52
2019-05-19T14:52:20.851Z,33.48
2019-05-19T14:54:51.284Z,37.13
2019-05-19T14:57:21.740Z,37.60
2019-05-19T14:59:52.128Z,36.90
2019-05-19T15:02:22.631Z,38.92
2019-05-19T15:04:53.091Z,39.83
2019-05-19T15:07:23.520Z,39.08
2019-05-19T15:09:54.313Z,42.60
2019-05-19T15:12:24.871Z,40.33
2019-05-19T15:14:55.337Z,44.53
2019-05-19T15:17:25.899Z,40.92
2019-05-19T15:19:56.364Z,40.43
2019-05-19T15:22:26.779Z,44.75
2019-05-19T15:24:57.233Z,44.20
2019-05-19T15:27:27.727Z,44.03
2019-05-19T15:30:11.900Z,44.93
2019-05-19T15:32:30.425Z,42.40
2019-05-19T15:35:00.876Z,50.12
2019-05-19T15:37:31.296Z,48.33
2019-05-19T15:40:01.727Z,45.43
2019-05-19T15:42:32.924Z,46.85
2019-05-19T15:45:03.691Z,44.58
2019-05-19T15:47:34.218Z,42.70
2019-05-19T15:52:45.388Z,50.40
2019-05-19T15:55:15.813Z,74.00
2019-05-19T15:57:46.287Z,46.30
2019-05-19T16:00:17.142Z,40.05
2019-05-19T16:02:48.062Z,45.83
2019-05-19T16:05:18.772Z,42.62
2019-05-19T16:07:49.295Z,39.95
2019-05-19T16:10:19.880Z,37.67
2019-05-19T16:12:50.417Z,37.33
2019-05-19T16:15:21.912Z,47.65
2019-05-19T16:17:53.347Z,33.28
2019-05-19T16:20:24.159Z,31.25
2019-05-19T16:22:55.566Z,32.53
2019-05-19T16:25:26.086Z,31.75
2019-05-19T16:27:57.579Z,33.38
2019-05-19T16:30:28.236Z,33.48
2019-05-19T16:32:58.747Z,31.77
2019-05-19T16:35:29.283Z,32.30
2019-05-19T16:37:59.731Z,30.60
2019-05-19T16:40:30.184Z,30.88
2019-05-19T16:43:02.406Z,37.03
2019-05-19T16:45:32.824Z,37.93
2019-05-19T16:48:03.724Z,36.80
2019-05-19T16:50:35.025Z,35.83
2019-05-19T16:53:12.378Z,37.53
2019-05-19T16:55:43.156Z,34.60
2019-05-19T16:58:21.119Z,32.95
2019-05-19T17:00:45.832Z,31.15
2019-05-19T17:03:17.384Z,29.40
2019-05-19T17:05:47.836Z,27.40
2019-05-19T17:08:18.297Z,22.80
2019-05-19T17:10:48.805Z,23.67
2019-05-19T17:13:19.631Z,22.07
2019-05-19T17:15:50.151Z,20.37
2019-05-19T17:18:20.857Z,19.35
2019-05-19T17:20:51.327Z,19.12
2019-05-19T17:23:21.695Z,23.12
2019-05-19T17:25:52.523Z,22.70
2019-05-19T17:28:22.974Z,23.95
2019-05-19T17:30:53.354Z,23.77
2019-05-19T17:33:23.799Z,19.07
2019-05-19T17:35:54.296Z,18.82
2019-05-19T17:38:24.775Z,20.35
2019-05-19T17:40:55.178Z,18.35
2019-05-19T17:43:25.685Z,20.10
2019-05-19T17:45:56.296Z,20.05
2019-05-19T17:48:27.146Z,21.45
2019-05-19T17:50:58.424Z,22.32
2019-05-19T17:53:32.771Z,24.77
2019-05-19T17:56:03.659Z,19.42
2019-05-19T17:58:34.863Z,21.37
2019-05-19T18:01:05.384Z,23.75
2019-05-19T18:03:39.176Z,21.48
2019-05-19T18:06:10.772Z,21.25
2019-05-19T18:08:45.136Z,21.75
2019-05-19T18:11:16.997Z,22.75
2019-05-19T18:13:47.564Z,19.25
2019-05-19T18:16:17.927Z,21.00
2019-05-19T18:18:48.664Z,18.55
2019-05-19T18:21:19.212Z,17.73
2019-05-19T18:23:49.753Z,16.97
2019-05-19T18:26:20.371Z,18.52
2019-05-19T18:29:03.129Z,20.00
2019-05-19T18:31:33.791Z,17.70
2019-05-19T18:34:04.308Z,19.17
2019-05-19T18:36:35.020Z,18.55
2019-05-19T18:39:06.208Z,19.48
2019-05-19T18:41:36.761Z,18.75
2019-05-19T18:44:07.413Z,19.98
2019-05-19T18:46:38.988Z,18.50
2019-05-19T18:49:09.550Z,19.02
2019-05-19T18:51:41.061Z,18.73
2019-05-19T18:54:11.625Z,17.85
2019-05-19T18:56:42.137Z,16.77
2019-05-19T18:59:12.594Z,19.10
2019-05-19T19:01:43.253Z,20.57
2019-05-19T19:04:13.940Z,19.95
2019-05-19T19:06:44.385Z,17.15
2019-05-19T19:09:14.915Z,17.70
2019-05-19T19:11:45.413Z,17.07
2019-05-19T19:14:16.123Z,21.12
2019-05-19T19:16:46.625Z,17.02
2019-05-19T19:19:17.987Z,16.32
2019-05-19T19:21:48.510Z,17.90
2019-05-19T19:24:19.134Z,20.05
2019-05-19T19:26:50.624Z,18.87
2019-05-19T19:29:22.124Z,19.87
2019-05-19T19:31:52.656Z,19.50
2019-05-19T19:34:23.237Z,18.92
2019-05-19T19:36:53.647Z,16.90
2019-05-19T19:39:24.111Z,18.65
2019-05-19T19:41:54.559Z,19.60
2019-05-19T19:47:07.389Z,19.65
2019-05-19T19:49:37.863Z,19.00
2019-05-19T19:52:08.931Z,17.85
2019-05-19T19:54:46.625Z,18.82
2019-05-19T19:57:17.079Z,19.50
2019-05-19T19:59:47.688Z,19.87
2019-05-19T20:02:18.158Z,18.30
2019-05-19T20:04:48.695Z,22.77
2019-05-19T20:07:20.095Z,17.98
2019-05-19T20:09:50.592Z,19.35
2019-05-19T20:12:21.268Z,19.95
2019-05-19T20:14:51.898Z,18.48
2019-05-19T20:17:22.372Z,17.85
2019-05-19T20:19:52.819Z,19.77
2019-05-19T20:22:23.354Z,20.08
2019-05-19T20:24:53.816Z,24.35
2019-05-19T20:27:24.400Z,22.85
2019-05-19T20:29:55.920Z,20.32
2019-05-19T20:32:26.471Z,18.20
2019-05-19T20:34:56.932Z,20.90
2019-05-19T20:37:28.300Z,19.73
2019-05-19T20:39:59.156Z,21.62
2019-05-19T20:42:32.843Z,22.27
2019-05-19T20:45:03.584Z,20.25
2019-05-19T20:47:35.108Z,20.82
2019-05-19T20:50:05.877Z,18.42
2019-05-19T20:52:36.900Z,22.62
2019-05-19T20:55:07.598Z,21.52
2019-05-19T20:57:38.235Z,19.77
2019-05-19T21:00:09.483Z,22.35
2019-05-19T21:02:39.927Z,25.77
2019-05-19T21:05:11.510Z,24.40
2019-05-19T21:07:42.057Z,22.32
2019-05-19T21:10:13.114Z,21.45
2019-05-19T21:12:43.653Z,24.72
2019-05-19T21:15:14.555Z,21.70
2019-05-19T21:17:45.068Z,21.75
2019-05-19T21:20:15.832Z,20.62
2019-05-19T21:22:46.435Z,19.23
2019-05-19T21:25:17.048Z,22.10
2019-05-19T21:27:47.530Z,23.25
2019-05-19T21:30:18.048Z,23.05
2019-05-19T21:32:48.559Z,20.43
2019-05-19T21:35:19.143Z,21.50
2019-05-19T21:37:49.636Z,21.40
2019-05-19T21:40:20.597Z,23.75
2019-05-19T21:42:51.065Z,23.62
2019-05-19T21:45:23.305Z,25.08
2019-05-19T21:47:53.769Z,22.48
2019-05-19T21:50:24.574Z,23.20
2019-05-19T21:55:31.968Z,26.77
2019-05-19T21:58:02.771Z,26.87
2019-05-19T22:00:33.397Z,27.42
2019-05-19T22:03:04.100Z,28.42
2019-05-19T22:05:34.772Z,30.17
2019-05-19T22:08:09.135Z,27.85
2019-05-19T22:10:39.645Z,29.77
2019-05-19T22:13:10.141Z,29.75
2019-05-19T22:15:40.706Z,29.55
2019-05-19T22:18:11.341Z,30.50
2019-05-19T22:20:47.996Z,29.50
2019-05-19T22:23:18.684Z,28.27
2019-05-19T22:25:50.168Z,28.42
2019-05-19T22:28:21.408Z,28.87
2019-05-19T22:30:52.249Z,30.52
2019-05-19T22:33:23.144Z,29.27
2019-05-19T22:35:53.670Z,30.88
2019-05-19T22:38:24.188Z,29.30
2019-05-19T22:40:54.656Z,30.05
2019-05-19T22:43:25.401Z,29.50
2019-05-19T22:45:56.030Z,30.40
2019-05-19T22:48:26.552Z,30.50
2019-05-19T22:50:57.104Z,31.42
2019-05-19T22:53:28.584Z,32.50
2019-05-19T22:55:59.081Z,30.97
2019-05-19T22:58:29.627Z,30.62
2019-05-19T23:01:00.245Z,34.10
2019-05-19T23:03:31.295Z,33.60
2019-05-19T23:06:01.820Z,35.25
2019-05-19T23:08:32.568Z,33.23
2019-05-19T23:11:03.090Z,33.63
2019-05-19T23:13:33.567Z,31.45
2019-05-19T23:16:04.095Z,31.90
2019-05-19T23:18:34.568Z,34.78
2019-05-19T23:21:05.075Z,35.05
2019-05-19T23:23:35.691Z,38.92
2019-05-19T23:26:06.356Z,37.53
2019-05-19T23:28:36.968Z,38.78
2019-05-19T23:31:14.576Z,38.23
2019-05-19T23:33:44.916Z,37.08
2019-05-19T23:36:15.440Z,37.67
2019-05-19T23:38:45.963Z,34.58
2019-05-19T23:41:16.746Z,34.85
2019-05-19T23:43:48.209Z,35.88
2019-05-19T23:46:18.966Z,35.95
2019-05-19T23:48:49.592Z,31.55
2019-05-19T23:51:20.153Z,34.80
2019-05-19T23:53:51.380Z,33.75
2019-05-19T23:56:28.837Z,35.23
2019-05-19T23:58:59.274Z,33.28
